KBDL/BDL METAR and TAF weather

Enter ICAO airport designator
Station Type Date Time Source
KBDL METAR 2018/04/20 08:51 UTC NOAA

KBDL 200851Z 32007KT 10SM FEW080 01/M05 A2998 RMK AO2 SLP153 T00061050 53015


Station Type Date Time Source
KBDL Decoded METAR 2018/04/20 08:51 UTC NOAA

BRADLEY INTERNATIONAL AIRPORT , CT, United States (KBDL) 41-56N 072-41W 60M
Apr 20, 2018 - 04:51 AM EDT / 2018.04.20 0851 UTC
Wind: from the NW (320 degrees) at 8 MPH (7 KT):0
Visibility: 10 mile(s):0
Sky conditions: mostly clear
Temperature: 33.1 F (0.6 C)
Windchill: 26 F (-3 C):1
Dew Point: 23.0 F (-5.0 C)
Relative Humidity: 66%
Pressure (altimeter): 29.98 in. Hg (1015 hPa)
Pressure tendency: 0.04 inches (1.5 hPa) higher than three hours ago
ob: KBDL 200851Z 32007KT 10SM FEW080 01/M05

Station Type Date Time Source
KBDL TAF 2018/04/20 06:27 UTC NOAA

TAF KBDL 200525Z 2006/2112 31010KT P6SM BKN080
FM201000 30012KT P6SM SCT050
FM201700 32014G24KT P6SM BKN050
FM210000 32010KT P6SM SCT050


Example: see airport list